Sunday, August 18, 2019, 9:53 AM EDT
Back to Local

KAFN, Jaffrey Muni-silver Ranch

Location: Jaffrey, NH, United States Lat: 42.8
Local Time: 9:53 AM EDT (13:53 GMT) Lon: -72
Time Zone: US/Eastern Elev: 1040 ft

Show me the last for .
Show Decoded

2019-08-18 08:52 METAR KAFN 181252Z AUTO 24003KT 10SM OVC003 19/18 A3007 RMK AO2 SLP184 T01940178
                 $ =
2019-08-18 08:39 METAR KAFN 181239Z AUTO VRB03KT 7SM OVC003 19/18 A3007 RMK AO2 T01890178 $ =
2019-08-18 07:52 METAR KAFN 181152Z AUTO 20005KT 2SM BR OVC002 18/17 A3007 RMK AO2 SLP182 70053
                 T01830172 10189 20172 53014 $ =
2019-08-18 07:43 METAR KAFN 181143Z AUTO 18003KT 1 1/2SM BR OVC002 18/17 A3006 RMK AO2 T01830172
                 $ =
2019-08-18 07:34 METAR KAFN 181134Z AUTO 19004KT 1SM BR OVC002 18/17 A3006 RMK AO2 T01830167 $ =
2019-08-18 07:27 METAR KAFN 181127Z AUTO 19003KT 1 1/2SM BR OVC002 18/17 A3005 RMK AO2 T01780167
                 $ =
2019-08-18 07:11 METAR KAFN 181111Z AUTO 00000KT 2SM BR OVC002 18/17 A3004 RMK AO2 VIS 1 1/4V3
                 T01780167 $ =
2019-08-18 07:07 METAR KAFN 181107Z AUTO 00000KT 1 1/4SM BR OVC002 17/17 A3004 RMK AO2 T01720167
                 $ =
2019-08-18 06:52 METAR KAFN 181052Z AUTO 27003KT 1/2SM FG OVC002 18/17 A3004 RMK AO2 SLP171
                 T01780167 $ =
2019-08-18 06:43 METAR KAFN 181043Z AUTO 00000KT 3/4SM BR OVC002 18/17 A3004 RMK AO2 T01780167 $
                 =
2019-08-18 06:28 METAR KAFN 181028Z AUTO 20004KT 1SM BR OVC002 18/17 A3004 RMK AO2 T01780167 $ =
2019-08-18 06:19 METAR KAFN 181019Z AUTO 00000KT 1 1/4SM BR OVC002 18/17 A3004 RMK AO2 T01780167
                 $ =
2019-08-18 06:05 METAR KAFN 181005Z AUTO 20004KT 1SM BR OVC002 18/17 A3004 RMK AO2 T01780167 $ =
2019-08-18 06:01 METAR KAFN 181001Z AUTO 20003KT 1 3/4SM BR OVC002 18/17 A3003 RMK AO2 VIS 3/4V5
                 T01780167 $ =
2019-08-18 05:52 METAR KAFN 180952Z AUTO 18003KT 4SM BR OVC002 18/17 A3003 RMK AO2 SLP169
                 T01780167 $ =
2019-08-18 05:35 METAR KAFN 180935Z AUTO 20005KT 2SM BR OVC002 18/17 A3003 RMK AO2 T01780167 $ =
2019-08-18 05:14 METAR KAFN 180914Z AUTO 20003KT 4SM BR OVC001 18/17 A3003 RMK AO2 T01830172 $ =
2019-08-18 05:05 METAR KAFN 180905Z AUTO 20004KT 2SM BR OVC001 18/17 A3003 RMK AO2 T01830172 $ =
2019-08-18 04:52 METAR KAFN 180852Z AUTO 20005KT 1 1/4SM BR OVC002 18/17 A3003 RMK AO2 SLP167
                 T01780172 55004 $ =
2019-08-18 04:43 METAR KAFN 180843Z AUTO 00000KT 1SM BR OVC002 18/17 A3003 RMK AO2 T01780172 $ =
2019-08-18 04:11 METAR KAFN 180811Z AUTO 20004KT 1 1/2SM BR OVC002 18/17 A3002 RMK AO2 T01830172
                 $ =
2019-08-18 03:52 METAR KAFN 180752Z AUTO 19004KT 1 1/4SM BR OVC002 18/17 A3002 RMK AO2 SLP166
                 T01830172 $ =
2019-08-18 03:50 METAR KAFN 180750Z AUTO 18004KT 1 1/4SM BR OVC002 18/17 A3002 RMK AO2 $ =
2019-08-18 03:38 METAR KAFN 180738Z AUTO 19003KT 1 3/4SM BR OVC002 18/17 A3002 RMK AO2 T01830172
                 $ =
2019-08-18 02:56 METAR KAFN 180656Z AUTO 19004KT 3SM BR OVC002 19/18 A3004 RMK AO2 T01890178 $ =
2019-08-18 02:52 METAR KAFN 180652Z AUTO 19004KT 1 3/4SM BR OVC002 19/18 A3004 RMK AO2 SLP171
                 T01890178 $ =
2019-08-18 02:30 METAR KAFN 180630Z AUTO 19003KT 1SM BR VV002 19/18 A3004 RMK AO2 T01890178 $ =
2019-08-18 02:22 METAR KAFN 180622Z AUTO 17003KT 1 1/4SM BR OVC002 19/18 A3004 RMK AO2 T01890178
                 $ =
2019-08-18 02:17 METAR KAFN 180617Z AUTO 16004KT 2SM BR OVC002 19/18 A3004 RMK AO2 T01890178 $ =
2019-08-18 02:13 METAR KAFN 180613Z AUTO 17003KT 1 1/4SM BR OVC002 19/18 A3004 RMK AO2 T01890178
                 $ =
2019-08-18 02:04 METAR KAFN 180604Z AUTO 19003KT 3/4SM BR VV002 19/18 A3004 RMK AO2 T01890178 $ =
2019-08-18 01:56 METAR KAFN 180556Z AUTO 19003KT 1SM BR OVC002 19/18 A3004 RMK AO2 T01890178 $ =
2019-08-18 01:52 METAR KAFN 180552Z AUTO 20004KT 1 1/2SM BR OVC002 19/18 A3004 RMK AO2 SLP172
                 60035 T01890178 10233 20183 50001 $ =
2019-08-18 01:25 METAR KAFN 180525Z AUTO 20004KT 10SM BKN004 19/18 A3004 RMK AO2 T01890178 $ =
2019-08-18 01:08 METAR KAFN 180508Z AUTO 00000KT 7SM SCT003 19/17 A3004 RMK AO2 T01890172 $ =
2019-08-18 00:52 METAR KAFN 180452Z AUTO 00000KT 6SM BR SCT090 19/17 A3004 RMK AO2 SLP172
                 T01890172 402780189 $ =
2019-08-18 00:06 METAR KAFN 180406Z AUTO 16003KT 7SM SCT003 19/18 A3004 RMK AO2 T01940178 $ =
2019-08-17 23:52 METAR KAFN 180352Z AUTO 00000KT 4SM BR BKN004 19/18 A3005 RMK AO2 CIG 002V007
                 SLP175 T01940183 $ =
2019-08-17 23:39 METAR KAFN 180339Z AUTO 19004KT 4SM BR OVC002 20/18 A3005 RMK AO2 T02000183 $ =
2019-08-17 23:23 METAR KAFN 180323Z AUTO 00000KT 2SM BR BKN002 OVC100 20/18 A3004 RMK AO2 CIG
                 001V006 T02000183 $ =
2019-08-17 23:15 METAR KAFN 180315Z AUTO 00000KT 1 3/4SM BR BKN004 BKN090 OVC110 20/18 A3004 RMK
                 AO2 CIG 001V021 T02000183 $ =
2019-08-17 23:04 METAR KAFN 180304Z AUTO 00000KT 1 3/4SM BR SCT006 SCT090 BKN110 20/18 A3003 RMK
                 AO2 LTG DSNT SE T02000183 $ =
2019-08-17 22:52 METAR KAFN 180252Z AUTO 00000KT 4SM BR SCT110 20/18 A3004 RMK AO2 LTG DSNT SE
                 RAB0154E26 SLP170 P0000 60035 T02000183 58004 $ =
2019-08-17 21:52 METAR KAFN 180152Z AUTO 00000KT 9SM SCT007 OVC110 21/18 A3005 RMK AO2 LTG DSNT
                 NE-S RAE43 TSE23 SLP176 P0020 T02060183 $ =
2019-08-17 21:49 METAR KAFN 180149Z AUTO VRB03KT 7SM BKN007 OVC110 21/18 A3005 RMK AO2 LTG DSNT
                 NE-S RAE43 TSE23 P0020 $ =
2019-08-17 21:40 METAR KAFN 180140Z AUTO 00000KT 2SM VCTS -RA BR BKN007 BKN075 OVC110 21/18 A3005
                 RMK AO2 LTG DSNT NE-S TSE23 P0020 T02060183 $ =
2019-08-17 21:36 METAR KAFN 180136Z AUTO 22004KT 1 1/4SM VCTS -RA BR SCT007 BKN070 OVC110 21/18
                 A3004 RMK AO2 LTG DSNT NE-S TSE23 P0020 T02060183 $ =
2019-08-17 21:26 METAR KAFN 180126Z AUTO 00000KT 3/4SM VCTS -RA BR FEW007 BKN100 OVC120 20/18
                 A3004 RMK AO2 LTG DSNT NE-S TSE23 P0020 T02000183 $ =
2019-08-17 21:07 METAR KAFN 180107Z AUTO 14005KT 3/4SM +TSRA BR FEW027 BKN040 OVC050 21/18 A3004
                 RMK AO2 LTG DSNT N AND NE AND SW P0016 T02060183 $ =
2019-08-17 21:02 METAR KAFN 180102Z AUTO VRB03KT 1 1/4SM +TSRA BR FEW009 OVC030 20/18 A3005 RMK
                 AO2 LTG DSNT N AND NE AND SW P0013 T02000183 $ =
2019-08-17 20:55 METAR KAFN 180055Z AUTO VRB03G17KT 1 1/4SM +TSRA BR BKN019 BKN029 OVC049 20/18
                 A3005 RMK AO2 LTG DSNT N AND NE AND SW P0002 T02000183 $ =
2019-08-17 20:52 METAR KAFN 180052Z AUTO VRB06G17KT 1 1/2SM +TSRA BR BKN012 BKN029 OVC049 21/18
                 A3005 RMK AO2 LTG DSNT N AND NE AND SW RAE2358B31 TSB52 SLP176 P0015 T02060183 $
                 =
2019-08-17 20:50 METAR KAFN 180050Z AUTO 32008G17KT 290V350 1 1/2SM VCTS RA FEW003 BKN012 OVC055
                 22/19 A3005 RMK AO2 LTG DSNT N AND SW RAE2358B31 PRESRR P0010 $ =
2019-08-17 20:48 METAR KAFN 180048Z AUTO 31010G17KT 280V360 1SM VCTS -RA FEW003 BKN028 OVC055
                 22/19 A3005 RMK AO2 LTG DSNT N AND SW RAE2358B31 PRESRR P0003 $ =
2019-08-17 20:42 METAR KAFN 180042Z AUTO 29008KT 1/2SM VCTS HZ BKN003 BKN029 23/21 A3004 RMK AO2
                 LTG DSNT SW-N RAE2358B31E40 PRESRR P0000 T02330206 $ =
2019-08-17 20:33 METAR KAFN 180033Z AUTO 15004KT 1/4SM VCTS -RA FG SCT004 BKN027 23/21 A3002 RMK
                 AO2 LTG DSNT ALQDS RAE2358B31 P0000 T02280206 $ =
2019-08-17 20:26 METAR KAFN 180026Z AUTO VRB03KT 3/4SM VCTS BR FEW004 SCT027 23/21 A3002 RMK AO2
                 LTG DSNT ALQDS RAE2358 P0000 T02330211 $ =
2019-08-17 20:24 METAR KAFN 180024Z AUTO 00000KT 1 1/4SM VCTS BR FEW004 SCT029 SCT090 23/21 A3002
                 RMK AO2 VIS 1/2V4 LTG DSNT ALQDS RAE2358 P0000 T02330211 $ =
2019-08-17 20:21 METAR KAFN 180021Z AUTO 00000KT 1 3/4SM BR FEW004 SCT027 SCT090 23/21 A3002 RMK
                 AO2 LTG DSNT SW-N RAE2358 P0000 T02330211 $ =
2019-08-17 19:52 METAR KAFN 172352Z AUTO 00000KT 8SM -RA FEW029 BKN050 OVC090 23/21 A3001 RMK AO2
                 LTG DSNT SW-N RAB2256 SLP164 P0018 60018 T02280211 10278 20228 53003 $ =
2019-08-17 19:45 METAR KAFN 172345Z AUTO 00000KT 4SM -RA BR FEW029 BKN050 OVC095 23/21 A3001 RMK
                 AO2 LTG DSNT W AND NW RAB2256 P0018 T02280211 $ =
2019-08-17 19:35 METAR KAFN 172335Z AUTO 17005KT 1 3/4SM RA BR BKN050 BKN075 OVC095 23/21 A3001
                 RMK AO2 LTG DSNT W AND NW RAB2256 P0016 T02330211 $ =
2019-08-17 19:15 METAR KAFN 172315Z AUTO 16005KT 5SM -RA BR FEW037 FEW070 BKN095 23/21 A3001 RMK
                 AO2 LTG DSNT W RAB2256 P0007 T02330211 $ =
2019-08-17 19:07 METAR KAFN 172307Z AUTO 15006KT 2 1/2SM -RA FEW029 SCT070 BKN090 24/21 A3001 RMK
                 AO2 LTG DSNT W RAB2256 P0006 T02390211 $ =
2019-08-17 18:52 METAR KAFN 172252Z AUTO 16006KT 10SM FEW027 SCT037 SCT055 25/20 A3001 RMK AO2
                 SLP163 T02500200 $ =
2019-08-17 17:52 METAR KAFN 172152Z AUTO VRB05KT 10SM SCT024 SCT035 BKN044 26/21 A3000 RMK AO2
                 SLP159 T02560206 $ =
2019-08-17 16:52 METAR KAFN 172052Z AUTO VRB06KT 10SM FEW026 SCT032 SCT042 27/20 A3000 RMK AO2
                 SLP159 T02720200 58022 $ =
2019-08-17 15:52 METAR KAFN 171952Z AUTO 19007KT 10SM FEW027 SCT032 BKN060 27/19 A3004 RMK AO2
                 SLP171 T02720189 $ =
2019-08-17 14:52 METAR KAFN 171852Z AUTO 20006KT 10SM FEW028 BKN045 27/19 A3005 RMK AO2 SLP177
                 T02670189 $ =
2019-08-17 14:37 METAR KAFN 171837Z AUTO 21007KT 10SM SCT028 27/19 A3006 RMK AO2 T02670189 $ =
2019-08-17 14:28 METAR KAFN 171828Z AUTO 21005KT 10SM BKN029 BKN036 27/19 A3007 RMK AO2 T02720189
                 $ =
2019-08-17 14:08 METAR KAFN 171808Z AUTO 20008KT 170V230 10SM SCT024 BKN032 27/19 A3007 RMK AO2
                 T02720189 $ =
2019-08-17 13:52 METAR KAFN 171752Z AUTO 21007KT 10SM BKN024 BKN036 27/19 A3007 RMK AO2 SLP183
                 T02670189 10267 20194 58004 $ =
2019-08-17 12:52 METAR KAFN 171652Z AUTO 20008KT 10SM SCT019 OVC034 25/19 A3008 RMK AO2 SLP186
                 T02500189 $ =
2019-08-17 12:40 METAR KAFN 171640Z AUTO 21007KT 10SM FEW019 SCT024 OVC034 25/19 A3008 RMK AO2
                 T02500189 $ =
2019-08-17 11:52 METAR KAFN 171552Z AUTO VRB05KT 10SM OVC023 24/18 A3008 RMK AO2 SLP185 T02440183
                 $ =
2019-08-17 11:01 METAR KAFN 171501Z AUTO VRB05KT 10SM OVC016 23/18 A3008 RMK AO2 T02330183 $ =
2019-08-17 10:52 METAR KAFN 171452Z AUTO VRB05KT 10SM OVC014 23/18 A3008 RMK AO2 SLP187 T02330178
                 $ =
2019-08-17 10:35 METAR KAFN 171435Z AUTO VRB03KT 10SM OVC012 22/18 A3008 RMK AO2 T02220183 $ =

Support USWX by starting your Amazon purchase here.